SBMGSBFI

Guest
Details From SBMG - REGIONAL DE MARINGA SILVIO NAME JUNIOR
To SBFI - Foz Do Iguacu
Flight Number -
Tags generated
Created
Modified
Stats Distance 187 nm / 346 km
Max Altitude 18,700 ft / 5,700 m
Waypoints 3
Social Downloads 0
Likes 0
Share VATSIM

Download

Looking for another format? Having issues loading an existing format? Contact us
Advertisement - Login to hide

Notes

Basic altitude profile: - Ascent Rate: 2500ft/min - Ascent Speed: 250kts - Cruise Altitude: 35000ft - Cruise Speed: 420kts - Descent Rate: 1500ft/min - Descent Speed: 250kts Options: - Use NATs: yes - Use PACOTS: yes - Use low airways: yes - Use high airways: yes

Route

SBMG VENUS SBFI

ID Type Via Altitude Latitude Longitude Leg Dist Tot Dist Heading (true) Name
O SBMG APT - 0 ft / 0 m -23.47611˚ -52.01640˚ - 0 nm - REGIONAL DE MARINGA SILVIO NAME JUNIOR
VENUS FIX - 18,700 ft / 5,700 m -24.68917˚ -53.12383˚ 94 nm 94 nm 220° / 220° -
O SBFI APT - 0 ft / 0 m -25.59579˚ -54.48744˚ 91 nm 186 nm 233° / 234° Foz Do Iguacu

Altitude Profile

Advertisement - Login to hide

Weather


0- 5 10 15 20 25 30 35+ Temperature / ° C

Clouds and Precipitation
Forecast for 2018-05-27 00:00 UTC. Updated 5 hours ago

Ground ~20,000 ft ~40,000 ft Winds

SBMG

Details ICAO SBMG (MGF)
Name REGIONAL DE MARINGA SILVIO NAME JUNIOR
Region Brazil
Timezone America/Sao_Paulo (UTC-3.0)
Stats Elevation 1,788 ft / 545 m (AMSL)
Location -23.476112° -52.016404°
Runways 1
Magnetic Variation 18.585° W

METAR

SBMG 270300Z 08012KT CAVOK 20/14 Q1019

Decode

TAF

Not found

Departure Runways

ID Width Length Bearing (true) Bearing (mag) Surface Threshold Offset Overrun Length
09 147 ft / 45 m 6,893 ft / 2,101 m 77.96° 96.54° Asphalt 0 ft / 0 m 195 ft / 59 m
27 147 ft / 45 m 6,893 ft / 2,101 m 257.95° 276.53° Asphalt 0 ft / 0 m 195 ft / 59 m

SBFI

Details ICAO SBFI (IGU)
Name Foz Do Iguacu
Region Brazil
Timezone America/Sao_Paulo (UTC-3.0)
Stats Elevation 787 ft / 240 m (AMSL)
Location -25.595790° -54.487443°
Runways 1
Magnetic Variation 16.361° W

METAR

SBFI 270400Z 11004KT CAVOK 19/18 Q1018

Decode

TAF

TAF SBFI 262200Z 2700/2724 09005KT CAVOK TN15/2708Z TX29/2718Z PROB40 2709/2711 5000 BR SCT002 BECMG 2711/2713 03007KT BECMG 2719/2721 08005KT RMK PER

Decode

Destination Runways

ID Width Length Bearing (true) Bearing (mag) Surface Threshold Offset Overrun Length
14 148 ft / 45 m 7,232 ft / 2,204 m 130.83° 147.19° Asphalt 0 ft / 0 m 164 ft / 50 m
32 148 ft / 45 m 7,232 ft / 2,204 m 310.83° 327.19° Asphalt 0 ft / 0 m 197 ft / 60 m

Approach Navaids

Runway Type Ident Frequency Range Bearing (true) Bearing (mag) Slope Elevation
14 Localiser IFI 109.10 MHz 18 nm / 33 km 130.98° 147.34° - 761 ft / 232 m (AMSL)
14 Glidescope IFI 109.10 MHz 10 nm / 19 km 130.83° 147.19° 3.00° 761 ft / 232 m (AMSL)

Popular Alternatives